createdAt,value
2018-07-22T00:00:50.208Z,24.12
2018-07-22T00:03:18.437Z,24.12
2018-07-22T00:05:46.671Z,24.13
2018-07-22T00:08:14.904Z,24.12
2018-07-22T00:10:43.128Z,24.11
2018-07-22T00:13:11.352Z,24.11
2018-07-22T00:15:39.573Z,24.09
2018-07-22T00:18:07.829Z,24.04
2018-07-22T00:20:36.057Z,24.01
2018-07-22T00:23:04.305Z,24.02
2018-07-22T00:25:32.553Z,24.01
2018-07-22T00:28:00.781Z,23.99
2018-07-22T00:30:29.005Z,23.96
2018-07-22T00:32:57.245Z,23.95
2018-07-22T00:35:25.456Z,23.87
2018-07-22T00:37:53.684Z,23.88
2018-07-22T00:40:21.896Z,23.85
2018-07-22T00:42:50.117Z,23.87
2018-07-22T00:45:18.345Z,23.85
2018-07-22T00:47:46.566Z,23.85
2018-07-22T00:50:14.812Z,23.82
2018-07-22T00:52:43.044Z,23.77
2018-07-22T00:55:11.285Z,23.72
2018-07-22T00:57:39.501Z,23.67
2018-07-22T01:00:08.414Z,23.61
2018-07-22T01:02:36.544Z,23.59
2018-07-22T01:05:05.158Z,23.59
2018-07-22T01:07:33.401Z,23.59
2018-07-22T01:10:01.634Z,23.59
2018-07-22T01:12:29.874Z,23.60
2018-07-22T01:14:58.106Z,23.59
2018-07-22T01:17:26.346Z,23.55
2018-07-22T01:19:54.605Z,23.55
2018-07-22T01:22:22.817Z,23.50
2018-07-22T01:24:51.025Z,23.46
2018-07-22T01:27:19.249Z,23.43
2018-07-22T01:29:47.489Z,23.39
2018-07-22T01:32:15.702Z,23.38
2018-07-22T01:34:43.906Z,23.33
2018-07-22T01:37:12.117Z,23.29
2018-07-22T01:39:40.324Z,23.27
2018-07-22T01:42:08.553Z,23.29
2018-07-22T01:44:36.789Z,23.28
2018-07-22T01:47:05.033Z,23.27
2018-07-22T01:49:33.237Z,23.26
2018-07-22T01:52:01.713Z,23.22
2018-07-22T01:54:29.936Z,23.19
2018-07-22T01:56:58.213Z,23.18
2018-07-22T01:59:26.432Z,23.16
2018-07-22T02:01:54.658Z,23.12
2018-07-22T02:04:22.873Z,23.10
2018-07-22T02:06:51.092Z,23.09
2018-07-22T02:09:19.300Z,23.03
2018-07-22T02:11:47.588Z,22.98
2018-07-22T02:14:15.753Z,22.96
2018-07-22T02:16:43.976Z,22.93
2018-07-22T02:19:12.200Z,22.90
2018-07-22T02:21:40.433Z,22.88
2018-07-22T02:24:08.638Z,22.87
2018-07-22T02:26:36.881Z,22.86
2018-07-22T02:29:05.113Z,22.82
2018-07-22T02:31:33.345Z,22.78
2018-07-22T02:34:01.568Z,22.76
2018-07-22T02:36:29.796Z,22.77
2018-07-22T02:38:58.043Z,22.78
2018-07-22T02:41:26.292Z,22.79
2018-07-22T02:43:54.526Z,22.77
2018-07-22T02:46:22.738Z,22.78
2018-07-22T02:48:50.957Z,22.76
2018-07-22T02:51:19.237Z,22.76
2018-07-22T02:53:47.443Z,22.77
2018-07-22T02:56:15.678Z,22.77
2018-07-22T02:58:43.890Z,22.76
2018-07-22T03:01:12.109Z,22.72
2018-07-22T03:03:40.309Z,22.72
2018-07-22T03:06:08.529Z,22.76
2018-07-22T03:08:36.741Z,22.76
2018-07-22T03:11:04.981Z,22.74
2018-07-22T03:13:33.201Z,22.66
2018-07-22T03:16:01.426Z,22.59
2018-07-22T03:18:29.657Z,22.59
2018-07-22T03:20:57.909Z,22.57
2018-07-22T03:23:26.120Z,22.58
2018-07-22T03:25:54.361Z,22.59
2018-07-22T03:28:22.584Z,22.58
2018-07-22T03:30:50.814Z,22.56
2018-07-22T03:33:19.029Z,22.53
2018-07-22T03:35:47.262Z,22.45
2018-07-22T03:38:15.559Z,22.43
2018-07-22T03:40:43.957Z,22.42
2018-07-22T03:43:12.348Z,22.44
2018-07-22T03:45:40.625Z,22.44
2018-07-22T03:48:08.840Z,22.41
2018-07-22T03:50:37.057Z,22.39
2018-07-22T03:53:05.289Z,22.34
2018-07-22T03:55:33.688Z,22.20
2018-07-22T03:58:01.904Z,22.13
2018-07-22T04:00:30.131Z,22.13
2018-07-22T04:02:58.332Z,22.12
2018-07-22T04:05:26.620Z,22.08
2018-07-22T04:07:54.837Z,22.07
2018-07-22T04:10:23.068Z,22.01
2018-07-22T04:12:51.311Z,21.99
2018-07-22T04:15:19.556Z,21.95
2018-07-22T04:17:47.777Z,21.93
2018-07-22T04:20:15.980Z,21.90
2018-07-22T04:22:44.206Z,21.93
2018-07-22T04:25:12.413Z,21.93
2018-07-22T04:27:40.657Z,21.91
2018-07-22T04:30:08.892Z,21.88
2018-07-22T04:32:37.114Z,21.88
2018-07-22T04:35:05.389Z,21.90
2018-07-22T04:37:33.620Z,21.87
2018-07-22T04:40:01.846Z,21.82
2018-07-22T04:42:30.073Z,21.74
2018-07-22T04:44:58.292Z,21.73
2018-07-22T04:47:26.513Z,21.72
2018-07-22T04:49:54.724Z,21.70
2018-07-22T04:52:22.952Z,21.68
2018-07-22T04:54:51.184Z,21.66
2018-07-22T04:57:19.394Z,21.65
2018-07-22T04:59:47.601Z,21.58
2018-07-22T05:02:15.821Z,21.53
2018-07-22T05:04:44.077Z,21.50
2018-07-22T05:07:12.306Z,21.50
2018-07-22T05:09:40.510Z,21.46
2018-07-22T05:12:08.724Z,21.47
2018-07-22T05:14:36.932Z,21.49
2018-07-22T05:17:05.169Z,21.46
2018-07-22T05:19:33.393Z,21.46
2018-07-22T05:22:01.622Z,21.48
2018-07-22T05:24:29.832Z,21.49
2018-07-22T05:26:58.905Z,21.50
2018-07-22T05:29:27.112Z,21.50
2018-07-22T05:31:55.334Z,21.49
2018-07-22T05:34:23.545Z,21.49
2018-07-22T05:36:51.776Z,21.50
2018-07-22T05:39:19.989Z,21.51
2018-07-22T05:41:48.233Z,21.52
2018-07-22T05:44:16.513Z,21.48
2018-07-22T05:46:44.741Z,21.40
2018-07-22T05:49:12.946Z,21.21
2018-07-22T05:51:41.152Z,21.00
2018-07-22T05:54:09.390Z,20.79
2018-07-22T05:56:37.621Z,20.65
2018-07-22T05:59:05.954Z,20.57
2018-07-22T06:01:34.156Z,20.56
2018-07-22T06:04:02.425Z,20.55
2018-07-22T06:06:30.661Z,20.56
2018-07-22T06:08:58.909Z,20.55
2018-07-22T06:11:27.120Z,20.51
2018-07-22T06:13:55.350Z,20.53
2018-07-22T06:16:23.596Z,20.55
2018-07-22T06:18:51.825Z,20.58
2018-07-22T06:21:20.169Z,20.62
2018-07-22T06:23:48.384Z,20.61
2018-07-22T06:26:16.588Z,20.64
2018-07-22T06:28:44.812Z,20.66
2018-07-22T06:31:13.024Z,20.71
2018-07-22T06:33:41.250Z,20.73
2018-07-22T06:36:09.458Z,20.81
2018-07-22T06:38:37.678Z,20.86
2018-07-22T06:41:05.934Z,20.90
2018-07-22T06:43:34.149Z,20.91
2018-07-22T06:46:02.422Z,20.96
2018-07-22T06:48:30.613Z,20.96
2018-07-22T06:50:58.821Z,20.94
2018-07-22T06:53:27.050Z,20.94
2018-07-22T06:55:55.268Z,21.00
2018-07-22T06:58:23.530Z,21.03
2018-07-22T07:00:51.854Z,21.08
2018-07-22T07:03:20.093Z,21.13
2018-07-22T07:05:48.305Z,21.18
2018-07-22T07:08:16.531Z,21.24
2018-07-22T07:10:44.736Z,21.32
2018-07-22T07:13:13.034Z,21.29
2018-07-22T07:15:41.265Z,21.33
2018-07-22T07:18:09.478Z,21.33
2018-07-22T07:20:37.694Z,21.32
2018-07-22T07:23:06.001Z,21.35
2018-07-22T07:25:34.249Z,21.38
2018-07-22T07:28:02.457Z,21.43
2018-07-22T07:30:30.911Z,21.47
2018-07-22T07:32:59.125Z,21.53
2018-07-22T07:35:27.393Z,21.57
2018-07-22T07:37:55.601Z,21.63
2018-07-22T07:40:23.842Z,21.71
2018-07-22T07:42:52.053Z,21.74
2018-07-22T07:45:20.292Z,21.75
2018-07-22T07:47:48.597Z,21.77
2018-07-22T07:50:16.841Z,21.80
2018-07-22T07:52:45.064Z,21.86
2018-07-22T07:55:13.279Z,21.90
2018-07-22T07:57:41.545Z,21.95
2018-07-22T08:00:09.841Z,21.95
2018-07-22T08:02:38.084Z,21.95
2018-07-22T08:05:09.256Z,21.91
2018-07-22T08:07:37.469Z,21.92
2018-07-22T08:10:06.353Z,21.89
2018-07-22T08:12:34.659Z,21.88
2018-07-22T08:15:02.937Z,21.84
2018-07-22T08:17:31.176Z,21.82
2018-07-22T08:19:59.522Z,21.86
2018-07-22T08:22:27.740Z,21.90
2018-07-22T08:24:56.041Z,21.91
2018-07-22T08:27:24.274Z,21.93
2018-07-22T08:29:52.500Z,21.95
2018-07-22T08:32:20.713Z,21.95
2018-07-22T08:34:49.038Z,21.95
2018-07-22T08:37:17.313Z,21.94
2018-07-22T08:39:45.561Z,21.95
2018-07-22T08:42:13.808Z,21.96
2018-07-22T08:44:42.079Z,22.01
2018-07-22T08:47:10.304Z,22.02
2018-07-22T08:49:38.549Z,22.06
2018-07-22T08:52:06.867Z,22.08
2018-07-22T08:54:35.080Z,22.12
2018-07-22T08:57:03.309Z,22.17
2018-07-22T08:59:31.541Z,22.23
2018-07-22T09:01:59.785Z,22.28
2018-07-22T09:04:28.014Z,22.35
2018-07-22T09:06:56.233Z,22.39
2018-07-22T09:09:24.442Z,22.45
2018-07-22T09:11:52.766Z,22.49
2018-07-22T09:14:20.980Z,22.58
2018-07-22T09:16:49.196Z,22.60
2018-07-22T09:19:17.436Z,22.64
2018-07-22T09:21:45.705Z,22.69
2018-07-22T09:24:13.953Z,22.74
2018-07-22T09:26:42.161Z,22.80
2018-07-22T09:29:10.381Z,22.85
2018-07-22T09:31:38.613Z,22.91
2018-07-22T09:34:06.876Z,22.96
2018-07-22T09:36:35.140Z,23.05
2018-07-22T09:39:04.593Z,23.16
2018-07-22T09:41:32.828Z,23.26
2018-07-22T09:44:01.053Z,23.32
2018-07-22T09:46:29.284Z,23.37
2018-07-22T09:48:57.493Z,23.45
2018-07-22T09:51:25.744Z,23.48
2018-07-22T09:53:53.958Z,23.54
2018-07-22T09:56:22.185Z,23.59
2018-07-22T09:58:50.407Z,23.58
2018-07-22T10:01:18.664Z,23.59
2018-07-22T10:03:46.908Z,23.61
2018-07-22T10:06:15.137Z,23.63
2018-07-22T10:08:43.380Z,23.71
2018-07-22T10:11:11.648Z,23.80
2018-07-22T10:13:39.833Z,23.84
2018-07-22T10:16:08.085Z,23.92
2018-07-22T10:18:36.328Z,23.98
2018-07-22T10:21:04.541Z,24.03
2018-07-22T10:23:32.801Z,24.14
2018-07-22T10:26:01.037Z,24.21
2018-07-22T10:28:29.265Z,24.26
2018-07-22T10:30:57.519Z,24.34
2018-07-22T10:33:25.752Z,24.38
2018-07-22T10:35:54.010Z,24.45
2018-07-22T10:38:22.236Z,24.52
2018-07-22T10:40:50.479Z,24.53
2018-07-22T10:43:18.675Z,24.63
2018-07-22T10:45:46.949Z,24.81
2018-07-22T10:48:15.200Z,24.95
2018-07-22T10:50:43.419Z,25.16
2018-07-22T10:53:11.638Z,25.42
2018-07-22T10:55:39.873Z,25.68
2018-07-22T10:58:08.109Z,25.96
2018-07-22T11:00:36.457Z,26.25
2018-07-22T11:03:06.196Z,26.50
2018-07-22T11:05:34.413Z,26.78
2018-07-22T11:08:02.646Z,26.99
2018-07-22T11:10:30.882Z,27.18
2018-07-22T11:12:59.093Z,27.39
2018-07-22T11:15:27.305Z,27.61
2018-07-22T11:17:55.512Z,27.80
2018-07-22T11:20:23.772Z,27.91
2018-07-22T11:22:51.980Z,27.91
2018-07-22T11:25:20.204Z,28.08
2018-07-22T11:27:48.427Z,28.20
2018-07-22T11:30:16.652Z,28.33
2018-07-22T11:32:44.936Z,28.41
2018-07-22T11:35:13.165Z,28.48
2018-07-22T11:37:41.434Z,28.57
2018-07-22T11:40:09.695Z,28.64
2018-07-22T11:42:37.936Z,28.93
2018-07-22T11:45:06.190Z,29.05
2018-07-22T11:47:34.437Z,29.10
2018-07-22T11:50:02.673Z,29.17
2018-07-22T11:52:30.880Z,29.31
2018-07-22T11:54:59.097Z,29.43
2018-07-22T11:57:27.336Z,29.50
2018-07-22T11:59:55.694Z,29.56
2018-07-22T12:02:23.920Z,29.60
2018-07-22T12:04:52.129Z,29.70
2018-07-22T12:07:20.345Z,29.88
2018-07-22T12:09:48.581Z,29.86
2018-07-22T12:12:16.842Z,29.89
2018-07-22T12:14:45.017Z,29.98
2018-07-22T12:17:13.229Z,29.93
2018-07-22T12:19:41.453Z,29.91
2018-07-22T12:22:09.689Z,29.92
2018-07-22T12:24:37.936Z,29.95
2018-07-22T12:27:06.185Z,30.03
2018-07-22T12:29:34.394Z,30.10
2018-07-22T12:32:02.629Z,30.08
2018-07-22T12:34:30.877Z,30.00
2018-07-22T12:36:59.080Z,30.07
2018-07-22T12:39:27.297Z,30.09
2018-07-22T12:41:55.520Z,30.15
2018-07-22T12:44:23.745Z,30.22
2018-07-22T12:46:51.984Z,30.34
2018-07-22T12:49:20.201Z,30.53
2018-07-22T12:51:48.457Z,30.74
2018-07-22T12:54:16.689Z,30.86
2018-07-22T12:56:44.925Z,30.66
2018-07-22T12:59:13.160Z,30.41
2018-07-22T13:01:41.392Z,30.31
2018-07-22T13:04:09.625Z,30.30
2018-07-22T13:06:37.846Z,30.39
2018-07-22T13:09:08.256Z,30.38
2018-07-22T13:11:36.669Z,30.55
2018-07-22T13:14:05.093Z,30.47
2018-07-22T13:16:33.325Z,30.48
2018-07-22T13:19:01.657Z,30.62
2018-07-22T13:21:29.776Z,30.64
2018-07-22T13:23:57.985Z,30.75
2018-07-22T13:26:26.210Z,30.77
2018-07-22T13:28:54.436Z,30.78
2018-07-22T13:31:22.657Z,30.87
2018-07-22T13:33:50.881Z,31.02
2018-07-22T13:36:19.097Z,31.07
2018-07-22T13:38:47.323Z,31.19
2018-07-22T13:41:15.580Z,31.40
2018-07-22T13:43:43.785Z,31.62
2018-07-22T13:46:12.044Z,31.79
2018-07-22T13:48:40.257Z,31.93
2018-07-22T13:51:08.480Z,32.08
2018-07-22T13:53:36.753Z,32.20
2018-07-22T13:56:05.033Z,32.21
2018-07-22T13:58:33.288Z,32.19
2018-07-22T14:01:01.505Z,32.11
2018-07-22T14:03:29.745Z,32.08
2018-07-22T14:05:57.961Z,32.14
2018-07-22T14:08:26.459Z,32.10
2018-07-22T14:10:54.668Z,32.00
2018-07-22T14:13:22.902Z,31.85
2018-07-22T14:15:51.120Z,31.78
2018-07-22T14:18:19.341Z,31.70
2018-07-22T14:20:47.585Z,31.68
2018-07-22T14:23:15.808Z,31.65
2018-07-22T14:25:44.117Z,31.69
2018-07-22T14:28:12.346Z,31.77
2018-07-22T14:30:40.593Z,31.78
2018-07-22T14:33:08.765Z,31.85
2018-07-22T14:35:37.005Z,31.88
2018-07-22T14:38:05.497Z,31.96
2018-07-22T14:40:33.837Z,32.01
2018-07-22T14:43:02.053Z,32.04
2018-07-22T14:45:30.281Z,32.04
2018-07-22T14:47:58.521Z,32.04
2018-07-22T14:50:26.752Z,31.99
2018-07-22T14:52:54.973Z,31.93
2018-07-22T14:55:23.196Z,31.90
2018-07-22T14:57:51.429Z,31.87
2018-07-22T15:00:19.690Z,31.85
2018-07-22T15:02:47.889Z,31.81
2018-07-22T15:05:16.178Z,31.78
2018-07-22T15:07:44.386Z,31.77
2018-07-22T15:10:12.612Z,31.81
2018-07-22T15:12:40.856Z,31.72
2018-07-22T15:15:09.134Z,31.67
2018-07-22T15:17:37.364Z,31.52
2018-07-22T15:20:06.113Z,31.32
2018-07-22T15:22:34.340Z,31.05
2018-07-22T15:25:02.556Z,30.82
2018-07-22T15:27:30.945Z,30.68
2018-07-22T15:29:59.168Z,30.54
2018-07-22T15:32:27.408Z,30.39
2018-07-22T15:34:55.616Z,30.34
2018-07-22T15:37:23.867Z,30.51
2018-07-22T15:39:52.081Z,30.58
2018-07-22T15:42:20.301Z,30.51
2018-07-22T15:44:48.549Z,30.36
2018-07-22T15:47:16.793Z,30.19
2018-07-22T15:49:45.010Z,30.01
2018-07-22T15:52:13.236Z,29.86
2018-07-22T15:54:41.496Z,29.68
2018-07-22T15:57:09.716Z,29.57
2018-07-22T15:59:37.950Z,29.50
2018-07-22T16:02:06.284Z,29.45
2018-07-22T16:04:34.516Z,29.38
2018-07-22T16:07:02.759Z,29.32
2018-07-22T16:09:30.961Z,29.22
2018-07-22T16:11:59.188Z,29.13
2018-07-22T16:14:27.429Z,29.06
2018-07-22T16:16:55.664Z,29.01
2018-07-22T16:19:23.873Z,28.97
2018-07-22T16:21:52.097Z,28.94
2018-07-22T16:24:20.325Z,28.94
2018-07-22T16:26:48.587Z,28.90
2018-07-22T16:29:16.885Z,28.87
2018-07-22T16:31:45.105Z,28.88
2018-07-22T16:34:13.320Z,28.90
2018-07-22T16:36:41.541Z,28.90
2018-07-22T16:39:10.449Z,28.91
2018-07-22T16:41:39.044Z,28.91
2018-07-22T16:44:07.659Z,28.89
2018-07-22T16:46:36.155Z,28.84
2018-07-22T16:49:04.378Z,28.79
2018-07-22T16:51:32.621Z,28.76
2018-07-22T16:54:00.865Z,28.73
2018-07-22T16:56:29.104Z,28.70
2018-07-22T16:58:57.328Z,28.65
2018-07-22T17:01:25.585Z,28.63
2018-07-22T17:03:53.843Z,28.61
2018-07-22T17:06:22.053Z,28.63
2018-07-22T17:08:50.293Z,28.58
2018-07-22T17:11:18.553Z,28.53
2018-07-22T17:13:46.794Z,28.51
2018-07-22T17:16:14.989Z,28.51
2018-07-22T17:18:43.192Z,28.51
2018-07-22T17:21:11.404Z,28.51
2018-07-22T17:23:39.682Z,28.51
2018-07-22T17:26:08.044Z,28.54
2018-07-22T17:28:36.352Z,28.51
2018-07-22T17:31:04.638Z,28.50
2018-07-22T17:33:32.818Z,28.46
2018-07-22T17:36:01.037Z,28.46
2018-07-22T17:38:29.252Z,28.44
2018-07-22T17:40:57.462Z,28.40
2018-07-22T17:43:25.680Z,28.40
2018-07-22T17:45:53.905Z,28.37
2018-07-22T17:48:22.115Z,28.34
2018-07-22T17:50:50.321Z,28.27
2018-07-22T17:53:18.596Z,28.20
2018-07-22T17:55:46.805Z,28.11
2018-07-22T17:58:15.053Z,28.08
2018-07-22T18:00:43.265Z,28.03
2018-07-22T18:03:32.848Z,27.99
2018-07-22T18:06:01.333Z,27.99
2018-07-22T18:08:29.552Z,27.96
2018-07-22T18:10:57.796Z,27.96
2018-07-22T18:13:26.051Z,27.97
2018-07-22T18:15:54.270Z,27.99
2018-07-22T18:18:22.564Z,27.97
2018-07-22T18:20:50.776Z,27.95
2018-07-22T18:23:19.009Z,27.95
2018-07-22T18:25:47.550Z,27.93
2018-07-22T18:28:16.216Z,27.91
2018-07-22T18:30:44.988Z,27.88
2018-07-22T18:33:13.193Z,27.84
2018-07-22T18:35:41.488Z,27.82
2018-07-22T18:38:09.709Z,27.80
2018-07-22T18:40:38.072Z,27.78
2018-07-22T18:43:06.351Z,27.77
2018-07-22T18:45:34.667Z,27.76
2018-07-22T18:48:02.873Z,27.76
2018-07-22T18:50:31.082Z,27.74
2018-07-22T18:52:59.342Z,27.73
2018-07-22T18:55:27.623Z,27.72
2018-07-22T18:57:55.850Z,27.68
2018-07-22T19:00:24.113Z,27.67
2018-07-22T19:02:52.609Z,27.65
2018-07-22T19:05:20.850Z,27.62
2018-07-22T19:07:49.076Z,27.61
2018-07-22T19:10:17.281Z,27.58
2018-07-22T19:12:45.573Z,27.56
2018-07-22T19:15:14.036Z,27.54
2018-07-22T19:17:42.293Z,27.52
2018-07-22T19:20:10.532Z,27.50
2018-07-22T19:22:38.820Z,27.48
2018-07-22T19:25:07.104Z,27.46
2018-07-22T19:27:35.277Z,27.44
2018-07-22T19:30:03.557Z,27.42
2018-07-22T19:32:31.861Z,27.42
2018-07-22T19:35:00.075Z,27.40
2018-07-22T19:37:28.404Z,27.38
2018-07-22T19:39:56.655Z,27.34
2018-07-22T19:42:24.852Z,27.31
2018-07-22T19:44:53.064Z,27.28
2018-07-22T19:47:21.308Z,27.25
2018-07-22T19:49:49.709Z,27.22
2018-07-22T19:52:17.933Z,27.18
2018-07-22T19:54:46.253Z,27.13
2018-07-22T19:57:14.488Z,27.08
2018-07-22T19:59:42.700Z,27.05
2018-07-22T20:02:10.977Z,27.02
2018-07-22T20:04:39.189Z,26.98
2018-07-22T20:07:07.417Z,26.90
2018-07-22T20:09:35.697Z,26.84
2018-07-22T20:12:03.864Z,26.76
2018-07-22T20:14:32.089Z,26.70
2018-07-22T20:17:00.280Z,26.63
2018-07-22T20:19:28.508Z,26.57
2018-07-22T20:21:56.721Z,26.50
2018-07-22T20:24:24.963Z,26.44
2018-07-22T20:26:53.288Z,26.41
2018-07-22T20:29:21.497Z,26.37
2018-07-22T20:31:49.798Z,26.33
2018-07-22T20:34:17.980Z,26.29
2018-07-22T20:36:46.184Z,26.17
2018-07-22T20:39:14.402Z,26.22
2018-07-22T20:41:42.637Z,26.16
2018-07-22T20:44:10.861Z,26.12
2018-07-22T20:46:39.094Z,26.09
2018-07-22T20:49:07.340Z,26.05
2018-07-22T20:51:35.561Z,26.00
2018-07-22T20:54:03.832Z,25.96
2018-07-22T20:56:32.065Z,25.95
2018-07-22T20:59:00.288Z,25.93
2018-07-22T21:01:28.689Z,25.92
2018-07-22T21:03:57.164Z,25.88
2018-07-22T21:06:25.396Z,25.85
2018-07-22T21:08:53.715Z,25.91
2018-07-22T21:11:21.925Z,25.87
2018-07-22T21:13:50.253Z,25.88
2018-07-22T21:16:18.969Z,25.88
2018-07-22T21:18:47.169Z,25.85
2018-07-22T21:21:15.614Z,25.83
2018-07-22T21:23:43.829Z,25.81
2018-07-22T21:26:12.069Z,25.78
2018-07-22T21:28:40.293Z,25.75
2018-07-22T21:31:08.529Z,25.74
2018-07-22T21:33:36.744Z,25.70
2018-07-22T21:36:04.960Z,25.68
2018-07-22T21:38:33.222Z,25.66
2018-07-22T21:41:01.445Z,25.64
2018-07-22T21:43:29.674Z,25.58
2018-07-22T21:45:57.962Z,25.56
2018-07-22T21:48:26.209Z,25.52
2018-07-22T21:50:54.441Z,25.49
2018-07-22T21:53:22.673Z,25.40
2018-07-22T21:55:50.887Z,25.42
2018-07-22T21:58:19.129Z,25.37
2018-07-22T22:00:47.384Z,25.34
2018-07-22T22:03:15.612Z,25.30
2018-07-22T22:05:43.883Z,25.26
2018-07-22T22:08:12.086Z,25.23
2018-07-22T22:10:40.330Z,25.18
2018-07-22T22:13:08.576Z,25.15
2018-07-22T22:15:36.824Z,25.11
2018-07-22T22:18:05.653Z,25.08
2018-07-22T22:20:34.149Z,25.05
2018-07-22T22:23:02.360Z,25.03
2018-07-22T22:25:30.567Z,25.00
2018-07-22T22:27:58.840Z,24.96
2018-07-22T22:30:27.097Z,24.94
2018-07-22T22:32:55.344Z,24.93
2018-07-22T22:35:23.576Z,24.91
2018-07-22T22:37:51.808Z,24.89
2018-07-22T22:40:20.056Z,24.85
2018-07-22T22:42:48.273Z,24.82
2018-07-22T22:45:16.615Z,24.78
2018-07-22T22:47:45.016Z,24.75
2018-07-22T22:50:13.264Z,24.69
2018-07-22T22:52:41.693Z,24.62
2018-07-22T22:55:09.945Z,24.59
2018-07-22T22:57:38.243Z,24.54
2018-07-22T23:00:07.096Z,24.50
2018-07-22T23:02:36.817Z,24.45
2018-07-22T23:05:06.409Z,24.40
2018-07-22T23:07:34.757Z,24.37
2018-07-22T23:10:03.297Z,24.36
2018-07-22T23:12:31.528Z,24.31
2018-07-22T23:14:59.753Z,24.28
2018-07-22T23:17:27.974Z,24.22
2018-07-22T23:19:56.316Z,24.20
2018-07-22T23:22:24.541Z,24.16
2018-07-22T23:24:52.778Z,24.13
2018-07-22T23:27:21.017Z,24.08
2018-07-22T23:29:49.249Z,24.06
2018-07-22T23:32:17.461Z,24.03
2018-07-22T23:34:45.673Z,24.01
2018-07-22T23:37:13.892Z,23.98
2018-07-22T23:39:42.160Z,23.95
2018-07-22T23:42:10.589Z,23.92
2018-07-22T23:44:38.800Z,23.91
2018-07-22T23:47:07.024Z,23.89
2018-07-22T23:49:35.248Z,23.87
2018-07-22T23:52:03.509Z,23.85
2018-07-22T23:54:31.744Z,23.82
2018-07-22T23:57:00.073Z,23.81
2018-07-22T23:59:28.293Z,23.77
